Time;durP1;ratioP1;P1;durP2;ratioP2;P2;SDS_P1;SDS_P2;PMS_P1;PMS_P2;Temp;Humidity;BMP_temperature;BMP_pressure;BME280_temperature;BME280_humidity;BME280_pressure;Samples;Min_cycle;Max_cycle;Signal;HPM_P1;HPM_P2
2023/01/27 00:01:02;;;;;;;;;;;;;;;16.16;76.79;100383.59;7405804;19;1694;-51
2023/01/27 00:03:30;;;;;;;;;;;;;;;16.12;76.50;100372.31;7405761;19;1817;-51
2023/01/27 00:06:00;;;;;;;;;;;;;;;16.09;76.62;100380.56;7405505;19;1977;-51
2023/01/27 00:08:31;;;;;;;;;;;;;;;16.12;76.81;100371.47;7401512;19;2026;-50
2023/01/27 00:13:40;;;;;;;;;;;;;;;16.09;76.57;100365.44;7401932;19;1798;-51
2023/01/27 00:16:08;;;;;;;;;;;;;;;16.07;76.60;100390.50;7405253;19;1925;-52
2023/01/27 00:18:37;;;;;;;;;;;;;;;16.06;76.72;100383.50;7404356;19;1887;-51
2023/01/27 00:26:29;;;;;;;;;;;;;;;16.03;76.48;100378.41;7405489;19;2172;-52
2023/01/27 00:28:57;;;;;;;;;;;;;;;16.04;76.24;100353.44;7405330;19;1037;-51
2023/01/27 00:34:10;;;;;;;;;;;;;;;16.08;76.17;100361.03;7404232;19;1964;-51
2023/01/27 00:36:39;;;;;;;;;;;;;;;16.06;76.34;100354.16;7403685;19;2018;-51
2023/01/27 00:39:11;;;;;;;;;;;;;;;16.01;75.86;100348.34;7403286;19;2217;-52
2023/01/27 00:41:40;;;;;;;;;;;;;;;16.02;75.63;100342.88;7403292;19;1929;-51
2023/01/27 00:44:11;;;;;;;;;;;;;;;16.03;75.76;100319.72;7404016;19;1784;-51
2023/01/27 00:46:39;;;;;;;;;;;;;;;16.03;75.82;100335.72;7403974;19;1889;-51
2023/01/27 00:49:08;;;;;;;;;;;;;;;16.02;75.72;100339.38;7403796;19;2194;-51
2023/01/27 00:51:36;;;;;;;;;;;;;;;16.01;75.58;100327.00;7403288;19;1826;-51
2023/01/27 00:54:04;;;;;;;;;;;;;;;16.00;75.86;100325.31;7401591;19;1976;-52
2023/01/27 00:56:35;;;;;;;;;;;;;;;16.01;75.56;100335.00;7400791;19;1778;-51
2023/01/27 00:59:04;;;;;;;;;;;;;;;15.97;75.49;100344.22;7404811;19;1509;-51
2023/01/27 01:01:32;;;;;;;;;;;;;;;15.93;75.67;100322.31;7402494;19;1940;-50
2023/01/27 01:04:01;;;;;;;;;;;;;;;15.91;75.74;100337.56;7403540;19;1895;-52
2023/01/27 01:06:29;;;;;;;;;;;;;;;15.91;75.73;100335.75;7404463;19;1701;-51
2023/01/27 01:08:58;;;;;;;;;;;;;;;15.89;76.01;100361.69;7401928;19;1888;-52
2023/01/27 01:11:26;;;;;;;;;;;;;;;15.89;75.96;100347.53;7401218;19;1793;-52
2023/01/27 01:13:57;;;;;;;;;;;;;;;15.87;75.85;100365.47;7403458;19;1930;-51
2023/01/27 01:16:26;;;;;;;;;;;;;;;15.84;75.97;100345.25;7402987;19;1807;-51
2023/01/27 01:18:55;;;;;;;;;;;;;;;15.84;75.94;100344.41;7400310;19;1942;-51
2023/01/27 01:21:23;;;;;;;;;;;;;;;15.84;75.38;100352.41;7403383;19;1853;-52
2023/01/27 01:23:51;;;;;;;;;;;;;;;15.89;75.52;100344.84;7398960;19;2083;-51
2023/01/27 01:26:20;;;;;;;;;;;;;;;15.87;75.50;100346.81;7403259;19;1809;-51
2023/01/27 01:28:49;;;;;;;;;;;;;;;15.86;75.64;100337.97;7401337;19;1865;-51
2023/01/27 01:31:21;;;;;;;;;;;;;;;15.85;75.39;100344.25;7402477;19;2043;-52
2023/01/27 01:33:51;;;;;;;;;;;;;;;15.81;75.47;100331.31;7402343;19;2058;-51
2023/01/27 01:36:20;;;;;;;;;;;;;;;15.85;75.70;100330.09;7402186;19;1712;-51
2023/01/27 01:38:48;;;;;;;;;;;;;;;15.79;75.60;100323.44;7402860;19;1931;-52
2023/01/27 01:41:18;;;;;;;;;;;;;;;15.77;75.71;100330.72;7402364;19;1932;-50
2023/01/27 01:43:47;;;;;;;;;;;;;;;15.77;75.17;100329.88;7402166;19;1691;-52
2023/01/27 01:46:15;;;;;;;;;;;;;;;15.82;75.40;100328.53;7401967;19;1883;-50
2023/01/27 01:48:48;;;;;;;;;;;;;;;15.80;75.23;100319.81;7399895;19;1862;-50
2023/01/27 01:51:19;;;;;;;;;;;;;;;15.80;75.28;100314.47;7402467;19;1010;-50
2023/01/27 01:53:50;;;;;;;;;;;;;;;15.80;74.86;100317.13;7399978;19;2050;-51
2023/01/27 01:56:22;;;;;;;;;;;;;;;15.80;74.83;100309.16;7399423;19;1994;-51
2023/01/27 01:58:50;;;;;;;;;;;;;;;15.79;75.18;100293.25;7402319;19;1931;-52
2023/01/27 02:01:20;;;;;;;;;;;;;;;15.82;74.73;100311.69;7401654;19;1752;-50
2023/01/27 02:03:55;;;;;;;;;;;;;;;15.79;75.02;100302.09;7401956;19;1901;-51
2023/01/27 02:06:23;;;;;;;;;;;;;;;15.74;74.89;100308.78;7402833;19;1188;-51
2023/01/27 02:08:52;;;;;;;;;;;;;;;15.73;75.35;100293.78;7398664;19;1937;-52
2023/01/27 02:11:21;;;;;;;;;;;;;;;15.72;75.41;100295.56;7402209;19;1892;-52
2023/01/27 02:13:50;;;;;;;;;;;;;;;15.70;75.31;100292.19;7401485;19;1811;-52
2023/01/27 02:16:18;;;;;;;;;;;;;;;15.82;74.60;100307.19;7400880;19;1909;-51
2023/01/27 02:18:46;;;;;;;;;;;;;;;16.47;72.73;100291.13;7401239;19;1852;-50
2023/01/27 02:21:17;;;;;;;;;;;;;;;17.15;70.70;100271.97;7401460;19;1731;-50
2023/01/27 02:23:49;;;;;;;;;;;;;;;17.76;68.84;100270.97;7399053;19;1905;-51
2023/01/27 02:26:22;;;;;;;;;;;;;;;18.17;67.27;100285.94;7402462;19;1210;-50
2023/01/27 02:28:55;;;;;;;;;;;;;;;18.50;66.15;100278.41;7400341;19;2048;-51
2023/01/27 02:31:23;;;;;;;;;;;;;;;18.63;66.11;100262.91;7398625;19;2043;-50
2023/01/27 02:33:52;;;;;;;;;;;;;;;18.67;65.67;100258.09;7396528;19;2033;-51
2023/01/27 02:36:20;;;;;;;;;;;;;;;18.69;65.81;100251.59;7402927;19;1870;-51
2023/01/27 02:38:50;;;;;;;;;;;;;;;18.60;66.07;100249.81;7406136;19;1939;-51
2023/01/27 02:41:23;;;;;;;;;;;;;;;18.49;66.72;100260.69;7406019;19;1570;-50
2023/01/27 02:43:51;;;;;;;;;;;;;;;18.25;67.11;100248.59;7405797;19;1883;-51
2023/01/27 02:46:20;;;;;;;;;;;;;;;17.58;69.11;100249.44;7405531;19;1886;-51
2023/01/27 02:48:48;;;;;;;;;;;;;;;17.15;70.72;100258.59;7403669;19;1860;-51
2023/01/27 02:51:16;;;;;;;;;;;;;;;17.68;69.15;100258.28;7405908;19;1046;-52
2023/01/27 02:53:45;;;;;;;;;;;;;;;18.78;65.68;100249.03;7402887;19;2004;-51
2023/01/27 02:56:13;;;;;;;;;;;;;;;19.55;63.75;100246.97;7403260;19;1907;-50
2023/01/27 02:58:44;;;;;;;;;;;;;;;19.56;63.38;100227.22;7405152;19;1862;-50
2023/01/27 03:01:12;;;;;;;;;;;;;;;19.66;62.82;100228.00;7405103;19;2007;-51
2023/01/27 03:03:42;;;;;;;;;;;;;;;19.80;62.95;100214.06;7404561;19;1842;-51
2023/01/27 03:06:11;;;;;;;;;;;;;;;19.81;62.71;100215.72;7405943;19;1010;-50
2023/01/27 03:08:39;;;;;;;;;;;;;;;19.76;63.01;100207.31;7401763;19;1868;-50
2023/01/27 03:11:08;;;;;;;;;;;;;;;19.71;63.16;100204.25;7405177;19;2046;-50
2023/01/27 03:13:36;;;;;;;;;;;;;;;19.67;62.95;100184.88;7404526;19;1877;-51
2023/01/27 03:18:49;;;;;;;;;;;;;;;19.72;63.10;100205.94;7405876;19;1772;-50
2023/01/27 03:21:18;;;;;;;;;;;;;;;19.86;62.75;100202.72;7405756;19;1023;-50
2023/01/27 03:23:47;;;;;;;;;;;;;;;19.84;62.56;100207.38;7402063;19;1986;-50
2023/01/27 03:26:16;;;;;;;;;;;;;;;19.77;62.77;100195.56;7405365;19;1873;-50
2023/01/27 03:29:53;;;;;;;;;;;;;;;19.81;62.74;100194.25;7402508;19;1867;-51
2023/01/27 03:31:35;;;;;;;;;;;;;;;19.68;63.08;100169.66;7403534;19;2020;-50
2023/01/27 03:34:03;;;;;;;;;;;;;;;19.65;63.17;100173.47;7404008;19;2050;-50
2023/01/27 03:47:17;;;;;;;;;;;;;;;19.57;63.36;100202.06;7400819;19;1760;-51
2023/01/27 03:49:45;;;;;;;;;;;;;;;19.55;63.30;100196.00;7399875;19;2216;-50
2023/01/27 03:52:13;;;;;;;;;;;;;;;19.55;63.30;100196.84;7403398;19;971;-50
2023/01/27 03:54:42;;;;;;;;;;;;;;;19.61;63.43;100206.13;7401884;19;1895;-50
2023/01/27 03:57:10;;;;;;;;;;;;;;;19.62;63.28;100215.88;7402851;19;1928;-51
2023/01/27 03:59:38;;;;;;;;;;;;;;;19.60;63.21;100202.63;7403166;19;1931;-50
2023/01/27 04:07:30;;;;;;;;;;;;;;;18.26;67.25;100207.50;7403480;19;1854;-50
2023/01/27 04:09:59;;;;;;;;;;;;;;;18.70;65.55;100204.22;7402433;19;1839;-51
2023/01/27 04:12:24;;;;;;;;;;;;;;;19.07;64.83;100184.63;7403381;19;1941;-50
2023/01/27 04:14:53;;;;;;;;;;;;;;;19.07;64.61;100193.50;7403197;19;2005;-50
2023/01/27 04:17:21;;;;;;;;;;;;;;;18.46;66.24;100223.47;7401676;19;1795;-50
2023/01/27 04:19:52;;;;;;;;;;;;;;;18.08;67.36;100231.47;7402149;19;1890;-50
2023/01/27 04:22:20;;;;;;;;;;;;;;;18.45;66.40;100219.97;7402817;19;1106;-49
2023/01/27 04:24:49;;;;;;;;;;;;;;;18.89;65.09;100235.50;7401758;19;2260;-50
2023/01/27 04:27:19;;;;;;;;;;;;;;;19.15;64.05;100221.41;7402776;19;1685;-51
2023/01/27 04:29:47;;;;;;;;;;;;;;;19.25;63.75;100239.09;7400703;19;1886;-50
2023/01/27 04:32:15;;;;;;;;;;;;;;;19.20;63.83;100243.22;7400894;19;1782;-50
2023/01/27 04:34:44;;;;;;;;;;;;;;;19.18;63.94;100250.56;7402713;19;1718;-50
2023/01/27 04:37:15;;;;;;;;;;;;;;;19.16;64.23;100241.84;7401774;19;1086;-50
2023/01/27 04:39:44;;;;;;;;;;;;;;;19.03;64.41;100247.56;7402144;19;1887;-51
2023/01/27 04:42:12;;;;;;;;;;;;;;;19.00;64.14;100232.63;7401956;19;1820;-50
2023/01/27 04:44:41;;;;;;;;;;;;;;;18.96;64.68;100225.88;7401444;19;1894;-50
2023/01/27 04:47:09;;;;;;;;;;;;;;;19.00;64.29;100248.72;7401114;19;1776;-50
2023/01/27 04:49:37;;;;;;;;;;;;;;;19.06;64.42;100225.84;7397766;19;1986;-51
2023/01/27 04:52:06;;;;;;;;;;;;;;;19.14;64.73;100233.97;7400202;19;2628;-50
2023/01/27 04:54:36;;;;;;;;;;;;;;;19.29;63.86;100242.34;7402260;19;1890;-51
2023/01/27 04:57:08;;;;;;;;;;;;;;;19.22;64.04;100236.75;7399098;19;1731;-51
2023/01/27 04:59:36;;;;;;;;;;;;;;;19.17;64.15;100224.78;7401459;19;1616;-51
2023/01/27 05:02:05;;;;;;;;;;;;;;;19.22;63.61;100252.00;7403202;19;2369;-50
2023/01/27 05:04:33;;;;;;;;;;;;;;;19.14;63.89;100252.72;7403418;19;1393;-50
2023/01/27 05:07:01;;;;;;;;;;;;;;;19.23;63.38;100249.13;7403967;19;1412;-51
2023/01/27 05:09:29;;;;;;;;;;;;;;;19.25;63.72;100247.16;7401360;19;1871;-51
2023/01/27 05:11:58;;;;;;;;;;;;;;;19.24;63.67;100258.88;7402382;19;1624;-50
2023/01/27 05:14:28;;;;;;;;;;;;;;;19.29;63.22;100250.38;7402931;19;1610;-50
2023/01/27 05:16:57;;;;;;;;;;;;;;;19.37;62.93;100249.63;7402980;19;1698;-51
2023/01/27 05:19:25;;;;;;;;;;;;;;;19.32;63.00;100242.06;7400612;19;1444;-51
2023/01/27 05:21:53;;;;;;;;;;;;;;;19.31;63.18;100243.03;7402828;19;1532;-50
2023/01/27 05:24:22;;;;;;;;;;;;;;;19.25;63.47;100246.31;7321857;19;14616;-50
2023/01/27 05:26:50;;;;;;;;;;;;;;;19.27;63.63;100218.34;7401011;19;1557;-51
2023/01/27 05:29:18;;;;;;;;;;;;;;;19.42;63.32;100231.25;7401413;19;1866;-52
2023/01/27 05:31:49;;;;;;;;;;;;;;;19.28;63.15;100229.94;7402734;19;1899;-50
2023/01/27 05:34:18;;;;;;;;;;;;;;;19.17;62.89;100211.38;7402969;19;1136;-50
2023/01/27 05:36:46;;;;;;;;;;;;;;;19.24;62.94;100228.56;7402679;19;2044;-50
2023/01/27 05:39:14;;;;;;;;;;;;;;;19.27;63.14;100206.78;7401617;19;1770;-51
2023/01/27 05:41:43;;;;;;;;;;;;;;;19.23;63.34;100205.41;7402109;19;1921;-53
2023/01/27 05:44:12;;;;;;;;;;;;;;;19.27;63.54;100201.44;7400208;19;2033;-50
2023/01/27 05:46:41;;;;;;;;;;;;;;;19.31;63.65;100197.44;7395036;19;2309;-49
2023/01/27 05:49:12;;;;;;;;;;;;;;;19.24;63.50;100204.44;7398337;19;2081;-50
2023/01/27 05:51:41;;;;;;;;;;;;;;;19.16;63.55;100215.03;7398397;19;2139;-51
2023/01/27 05:54:11;;;;;;;;;;;;;;;19.26;63.37;100219.34;7398835;19;1965;-52
2023/01/27 05:56:39;;;;;;;;;;;;;;;19.22;63.71;100220.66;7395340;19;1928;-52
2023/01/27 05:59:08;;;;;;;;;;;;;;;19.12;63.75;100213.66;7398291;19;1969;-51
2023/01/27 06:01:36;;;;;;;;;;;;;;;19.14;63.76;100227.75;7400138;19;1896;-52
2023/01/27 06:04:05;;;;;;;;;;;;;;;19.14;64.00;100217.03;7401347;19;1713;-51
2023/01/27 06:06:36;;;;;;;;;;;;;;;19.11;63.88;100218.16;7401314;19;1815;-52
2023/01/27 06:09:04;;;;;;;;;;;;;;;19.07;64.22;100225.66;7400177;19;1886;-51
2023/01/27 06:11:33;;;;;;;;;;;;;;;19.06;64.09;100236.56;7400063;19;1991;-52
2023/01/27 06:14:01;;;;;;;;;;;;;;;19.10;64.13;100237.06;7399954;19;2003;-51
2023/01/27 06:16:29;;;;;;;;;;;;;;;19.17;63.95;100230.13;7390826;19;1944;-52
2023/01/27 06:18:58;;;;;;;;;;;;;;;19.12;63.77;100230.59;7399525;19;1615;-51
2023/01/27 06:21:26;;;;;;;;;;;;;;;19.14;64.03;100233.09;7400014;19;1640;-51
2023/01/27 06:23:57;;;;;;;;;;;;;;;19.13;63.86;100242.97;7398072;19;2141;-50
2023/01/27 06:26:26;;;;;;;;;;;;;;;19.16;63.79;100241.84;7400412;19;1949;-51
2023/01/27 06:28:54;;;;;;;;;;;;;;;19.07;63.64;100244.41;7400972;19;2073;-51
2023/01/27 06:31:23;;;;;;;;;;;;;;;19.08;63.68;100231.88;7400769;19;2059;-52
2023/01/27 06:33:52;;;;;;;;;;;;;;;19.13;63.72;100226.91;7400105;19;2086;-52
2023/01/27 06:36:21;;;;;;;;;;;;;;;19.06;63.66;100231.19;7401067;19;1902;-51
2023/01/27 06:38:50;;;;;;;;;;;;;;;19.05;63.93;100227.66;7401512;19;1915;-53
2023/01/27 06:41:20;;;;;;;;;;;;;;;19.02;63.72;100222.59;7400815;19;1900;-51
2023/01/27 06:43:49;;;;;;;;;;;;;;;19.04;63.69;100217.94;7400878;19;1926;-52
2023/01/27 06:46:17;;;;;;;;;;;;;;;19.07;63.26;100222.16;7400149;19;1784;-52
2023/01/27 06:48:45;;;;;;;;;;;;;;;19.06;63.44;100218.63;7400733;19;2286;-52
2023/01/27 06:51:14;;;;;;;;;;;;;;;18.97;63.61;100206.13;7400830;19;1047;-52
2023/01/27 06:53:42;;;;;;;;;;;;;;;19.01;63.64;100201.31;7397433;19;1889;-52
2023/01/27 06:56:10;;;;;;;;;;;;;;;19.02;63.84;100198.47;7398553;19;1798;-52
2023/01/27 06:58:41;;;;;;;;;;;;;;;19.01;63.37;100212.84;7400332;19;1643;-51
2023/01/27 07:01:10;;;;;;;;;;;;;;;19.07;63.31;100209.56;7400523;19;1880;-52
2023/01/27 07:03:38;;;;;;;;;;;;;;;19.03;63.58;100192.13;7399478;19;1500;-52
2023/01/27 07:06:07;;;;;;;;;;;;;;;19.00;63.35;100184.41;7399985;19;1896;-52
2023/01/27 07:08:35;;;;;;;;;;;;;;;19.05;63.20;100192.81;7398432;19;2139;-52
2023/01/27 07:11:05;;;;;;;;;;;;;;;19.07;63.14;100201.53;7399744;19;1919;-52
2023/01/27 07:13:33;;;;;;;;;;;;;;;19.12;62.85;100205.59;7400214;19;1860;-52
2023/01/27 07:16:04;;;;;;;;;;;;;;;19.11;63.30;100210.13;7400084;19;1885;-52
2023/01/27 07:18:32;;;;;;;;;;;;;;;19.04;63.18;100204.53;7400681;19;1036;-51
2023/01/27 07:21:01;;;;;;;;;;;;;;;19.04;63.05;100211.75;7400339;19;2489;-52
2023/01/27 07:23:29;;;;;;;;;;;;;;;19.00;63.28;100226.41;7403935;19;2079;-52
2023/01/27 07:25:57;;;;;;;;;;;;;;;19.02;63.29;100237.81;7407147;19;1117;-51
2023/01/27 07:28:25;;;;;;;;;;;;;;;19.08;62.78;100218.50;7406276;19;2310;-51
2023/01/27 07:30:54;;;;;;;;;;;;;;;19.15;62.59;100226.75;7404333;19;1947;-52
2023/01/27 07:33:25;;;;;;;;;;;;;;;19.05;62.82;100203.53;7405690;19;1735;-52
2023/01/27 07:35:54;;;;;;;;;;;;;;;19.07;63.14;100212.25;7406536;19;1887;-52
2023/01/27 07:38:22;;;;;;;;;;;;;;;19.12;62.84;100219.88;7406279;19;1977;-51
2023/01/27 07:40:50;;;;;;;;;;;;;;;19.05;62.77;100219.59;7406824;19;1504;-52
2023/01/27 07:43:19;;;;;;;;;;;;;;;19.05;62.62;100216.94;7405537;19;1707;-52
2023/01/27 07:45:49;;;;;;;;;;;;;;;19.08;62.65;100227.38;7406725;19;1042;-51
2023/01/27 07:48:18;;;;;;;;;;;;;;;19.00;63.29;100226.41;7405862;19;1905;-52
2023/01/27 07:50:49;;;;;;;;;;;;;;;19.08;62.83;100229.22;7404105;19;1852;-51
2023/01/27 07:53:17;;;;;;;;;;;;;;;19.07;62.72;100214.94;7403141;19;2312;-51
2023/01/27 07:55:45;;;;;;;;;;;;;;;19.08;62.66;100232.72;7404687;19;1794;-52
2023/01/27 07:58:14;;;;;;;;;;;;;;;19.01;62.55;100222.75;7406763;19;1116;-52
2023/01/27 08:00:42;;;;;;;;;;;;;;;19.04;62.65;100233.19;7406794;19;954;-53
2023/01/27 08:03:22;;;;;;;;;;;;;;;18.97;62.95;100226.72;7405917;19;1627;-52
2023/01/27 08:05:53;;;;;;;;;;;;;;;19.08;62.60;100226.53;7405687;19;2108;-52
2023/01/27 08:08:21;;;;;;;;;;;;;;;19.05;62.73;100232.16;7403848;19;1892;-51
2023/01/27 08:10:50;;;;;;;;;;;;;;;19.05;62.46;100233.00;7402791;19;1896;-52
2023/01/27 08:19:09;;;;;;;;;;;;;;;19.10;62.59;100212.94;7399885;19;2086;-52
2023/01/27 08:21:40;;;;;;;;;;;;;;;19.04;62.29;100227.81;7401028;19;1963;-52
2023/01/27 08:24:09;;;;;;;;;;;;;;;19.03;62.40;100210.88;7401133;19;1837;-52
2023/01/27 08:26:37;;;;;;;;;;;;;;;19.07;62.54;100217.63;7401043;19;1974;-52
2023/01/27 08:29:05;;;;;;;;;;;;;;;19.05;62.66;100203.53;7402733;19;1840;-52
2023/01/27 08:31:34;;;;;;;;;;;;;;;19.12;62.27;100211.84;7401899;19;1840;-52
2023/01/27 08:34:02;;;;;;;;;;;;;;;19.06;62.41;100223.16;7401775;19;1976;-53
2023/01/27 08:36:30;;;;;;;;;;;;;;;19.03;62.15;100199.31;7401598;19;2022;-52
2023/01/27 08:39:01;;;;;;;;;;;;;;;19.05;62.55;100192.81;7402481;19;1775;-53
2023/01/27 08:41:29;;;;;;;;;;;;;;;19.07;62.18;100187.31;7400643;19;1954;-52
2023/01/27 08:43:58;;;;;;;;;;;;;;;19.05;62.45;100186.63;7401781;19;2150;-52
2023/01/27 08:46:26;;;;;;;;;;;;;;;19.14;62.34;100195.56;7401532;19;1891;-52
2023/01/27 08:48:54;;;;;;;;;;;;;;;19.08;61.96;100199.72;7402287;19;1922;-52
2023/01/27 08:51:23;;;;;;;;;;;;;;;19.04;62.27;100201.03;7400317;19;1848;-52
2023/01/27 08:53:51;;;;;;;;;;;;;;;19.04;62.01;100196.50;7399056;19;2099;-52
2023/01/27 08:56:22;;;;;;;;;;;;;;;19.16;62.01;100198.94;7400190;19;1931;-51
2023/01/27 08:58:51;;;;;;;;;;;;;;;19.12;62.03;100193.06;7401747;19;1890;-53
2023/01/27 09:01:20;;;;;;;;;;;;;;;19.05;62.45;100186.63;7400656;19;1782;-51
2023/01/27 09:03:49;;;;;;;;;;;;;;;19.07;62.04;100201.53;7402011;19;1882;-52
2023/01/27 09:06:17;;;;;;;;;;;;;;;19.14;62.20;100195.56;7401612;19;1124;-52
2023/01/27 09:09:07;;;;;;;;;;;;;;;19.01;62.06;100169.97;7397607;19;2058;-51
2023/01/27 09:11:37;;;;;;;;;;;;;;;19.10;62.21;100167.41;7398141;19;1973;-53
2023/01/27 09:14:05;;;;;;;;;;;;;;;19.19;61.75;100161.13;7401308;19;1970;-53
2023/01/27 09:16:33;;;;;;;;;;;;;;;19.13;62.19;100175.16;7401118;19;1897;-52
2023/01/27 09:19:02;;;;;;;;;;;;;;;19.01;61.29;100164.63;7399079;19;1781;-51
2023/01/27 09:21:31;;;;;;;;;;;;;;;18.92;61.08;100165.53;7402171;19;1908;-52
2023/01/27 09:23:59;;;;;;;;;;;;;;;18.85;60.05;100169.81;7398333;19;1976;-51
2023/01/27 09:26:27;;;;;;;;;;;;;;;18.99;60.09;100171.97;7402707;19;1921;-51
2023/01/27 09:28:58;;;;;;;;;;;;;;;19.02;60.48;100160.97;7402325;19;1745;-50
2023/01/27 09:31:27;;;;;;;;;;;;;;;19.14;60.98;100168.78;7400556;19;1984;-49
2023/01/27 09:33:55;;;;;;;;;;;;;;;19.10;61.03;100168.25;7401805;19;1705;-49
2023/01/27 09:36:23;;;;;;;;;;;;;;;19.14;61.40;100168.78;7401102;19;2154;-49
2023/01/27 09:38:56;;;;;;;;;;;;;;;19.11;61.35;100175.28;7401492;19;1819;-49
2023/01/27 09:41:38;;;;;;;;;;;;;;;19.10;61.48;100186.16;7399649;19;1944;-49
2023/01/27 09:44:17;;;;;;;;;;;;;;;18.99;60.95;100188.06;7400422;19;2185;-51
2023/01/27 09:46:56;;;;;;;;;;;;;;;18.92;61.22;100176.25;7401246;19;1885;-49
2023/01/27 09:49:38;;;;;;;;;;;;;;;18.97;61.03;100195.41;7401091;19;1922;-50
2023/01/27 09:52:16;;;;;;;;;;;;;;;18.94;61.58;100165.38;7401929;19;1747;-49
2023/01/27 09:54:53;;;;;;;;;;;;;;;19.03;61.28;100157.28;7401165;19;2093;-49
2023/01/27 09:57:27;;;;;;;;;;;;;;;19.06;61.66;100158.84;7401312;19;1760;-49
2023/01/27 10:00:11;;;;;;;;;;;;;;;19.03;61.87;100151.91;7398106;19;2110;-42
2023/01/27 10:02:54;;;;;;;;;;;;;;;19.01;61.51;100164.63;7401182;19;1860;-42
2023/01/27 10:05:37;;;;;;;;;;;;;;;19.04;61.41;100164.34;7401690;19;1755;-42
2023/01/27 10:08:18;;;;;;;;;;;;;;;19.08;61.70;100141.59;7401648;19;1858;-42
2023/01/27 10:10:54;;;;;;;;;;;;;;;19.05;61.65;100143.75;7399763;19;1988;-42
2023/01/27 10:13:30;;;;;;;;;;;;;;;18.97;61.72;100149.84;7401677;19;2007;-42
2023/01/27 10:16:13;;;;;;;;;;;;;;;18.99;61.60;100155.91;7401116;19;1626;-42
2023/01/27 10:18:49;;;;;;;;;;;;;;;18.99;61.88;100150.53;7401554;19;1774;-42
2023/01/27 10:21:22;;;;;;;;;;;;;;;19.04;61.81;100132.19;7400711;19;1709;-42
2023/01/27 10:23:57;;;;;;;;;;;;;;;19.05;61.86;100136.53;7399428;19;2195;-42
2023/01/27 10:26:31;;;;;;;;;;;;;;;19.00;61.45;100136.16;7400714;19;1783;-42
2023/01/27 10:29:03;;;;;;;;;;;;;;;18.90;61.47;100129.16;7401252;19;1867;-42
2023/01/27 10:31:37;;;;;;;;;;;;;;;19.05;61.09;100141.91;7399049;19;1896;-54
2023/01/27 10:34:11;;;;;;;;;;;;;;;19.22;60.44;100139.41;7400156;19;2010;-54
2023/01/27 10:36:45;;;;;;;;;;;;;;;19.23;60.74;100103.56;7400184;19;1930;-54
2023/01/27 10:39:17;;;;;;;;;;;;;;;19.23;60.49;100127.69;7399730;19;1910;-54
2023/01/27 10:41:53;;;;;;;;;;;;;;;19.21;60.58;100127.81;7399567;19;1913;-52
2023/01/27 10:44:35;;;;;;;;;;;;;;;19.25;60.64;100112.28;7399878;19;1696;-52
2023/01/27 10:47:11;;;;;;;;;;;;;;;19.26;60.57;100111.28;7400972;19;2323;-52
2023/01/27 10:49:41;;;;;;;;;;;;;;;19.23;60.24;100087.47;7399665;19;2336;-53
2023/01/27 10:52:12;;;;;;;;;;;;;;;19.33;60.04;100100.78;7397618;19;1732;-52
2023/01/27 10:54:44;;;;;;;;;;;;;;;19.37;59.75;100105.69;7396618;19;1949;-53
2023/01/27 10:57:16;;;;;;;;;;;;;;;19.26;59.90;100098.72;7403605;19;2128;-52
2023/01/27 10:59:48;;;;;;;;;;;;;;;19.28;59.84;100093.22;7406429;19;2119;-51
2023/01/27 11:02:25;;;;;;;;;;;;;;;19.35;59.84;100115.72;7405874;19;1796;-52
2023/01/27 11:04:57;;;;;;;;;;;;;;;18.55;58.93;100112.84;7406248;19;1994;-52
2023/01/27 11:07:26;;;;;;;;;;;;;;;18.79;59.64;100111.44;7406954;19;2079;-53
2023/01/27 11:09:58;;;;;;;;;;;;;;;19.00;59.63;100121.91;7406138;19;2019;-51
2023/01/27 11:12:31;;;;;;;;;;;;;;;18.82;58.96;100117.38;7405817;19;1815;-51
2023/01/27 11:15:01;;;;;;;;;;;;;;;18.74;58.18;100129.78;7406988;19;2044;-51
2023/01/27 11:17:33;;;;;;;;;;;;;;;18.81;58.92;100125.56;7406173;19;2019;-51
2023/01/27 11:20:06;;;;;;;;;;;;;;;18.96;59.03;100108.00;7406502;19;1956;-50
2023/01/27 11:22:38;;;;;;;;;;;;;;;18.99;59.20;100105.00;7405803;19;1809;-51
2023/01/27 11:25:08;;;;;;;;;;;;;;;19.08;59.64;100122.00;7406896;19;2043;-50
2023/01/27 11:27:48;;;;;;;;;;;;;;;19.06;59.69;100124.00;7404678;19;1916;-52
2023/01/27 11:30:21;;;;;;;;;;;;;;;19.07;59.74;100120.31;7405365;19;2169;-51
2023/01/27 11:32:54;;;;;;;;;;;;;;;19.00;60.01;100104.00;7404619;19;2299;-50
2023/01/27 11:35:23;;;;;;;;;;;;;;;19.16;60.01;100102.47;7405944;19;1884;-51
2023/01/27 11:37:53;;;;;;;;;;;;;;;19.22;60.00;100107.25;7406941;19;1046;-52
2023/01/27 11:40:24;;;;;;;;;;;;;;;19.18;60.32;100117.41;7405126;19;1982;-51
2023/01/27 11:42:52;;;;;;;;;;;;;;;19.13;60.61;100108.97;7406941;19;2050;-51
2023/01/27 11:45:22;;;;;;;;;;;;;;;19.17;60.49;100110.34;7405547;19;1889;-50
2023/01/27 11:47:55;;;;;;;;;;;;;;;19.16;60.91;100103.31;7404452;19;2039;-51
2023/01/27 11:50:24;;;;;;;;;;;;;;;19.24;61.24;100110.63;7405688;19;1849;-53
2023/01/27 11:52:56;;;;;;;;;;;;;;;19.25;61.20;100106.91;7406702;19;1041;-52
2023/01/27 11:55:27;;;;;;;;;;;;;;;19.13;61.47;100098.25;7403720;19;2131;-52
2023/01/27 11:57:59;;;;;;;;;;;;;;;19.09;61.35;100086.16;7405364;19;2255;-52
2023/01/27 12:00:30;;;;;;;;;;;;;;;19.05;60.96;100093.66;7406194;19;2046;-52
2023/01/27 12:03:05;;;;;;;;;;;;;;;19.17;61.37;100110.34;7405418;19;2036;-52
2023/01/27 12:05:35;;;;;;;;;;;;;;;19.17;61.40;100098.81;7404921;19;2124;-52
2023/01/27 12:08:05;;;;;;;;;;;;;;;19.18;61.57;100095.13;7404019;19;1802;-51
2023/01/27 12:10:34;;;;;;;;;;;;;;;19.18;61.28;100112.06;7401944;19;2111;-50
2023/01/27 12:13:08;;;;;;;;;;;;;;;19.17;61.67;100104.16;7405293;19;1747;-51
2023/01/27 12:15:37;;;;;;;;;;;;;;;19.20;61.66;100104.72;7405490;19;2305;-53
2023/01/27 12:18:13;;;;;;;;;;;;;;;19.22;61.87;100101.88;7404084;19;1866;-54
2023/01/27 12:20:44;;;;;;;;;;;;;;;19.23;61.69;100108.91;7403891;19;1666;-53
2023/01/27 12:23:22;;;;;;;;;;;;;;;19.23;61.39;100108.91;7405452;19;1687;-53
2023/01/27 12:25:54;;;;;;;;;;;;;;;19.22;61.84;100096.53;7405791;19;1794;-54
2023/01/27 12:28:26;;;;;;;;;;;;;;;19.30;61.19;100099.28;7403856;19;2078;-53
2023/01/27 12:30:55;;;;;;;;;;;;;;;19.33;61.28;100104.31;7403334;19;1862;-53
2023/01/27 12:33:28;;;;;;;;;;;;;;;19.41;61.16;100112.41;7403625;19;1928;-53
2023/01/27 12:36:00;;;;;;;;;;;;;;;19.31;61.26;100127.75;7403818;19;1884;-53
2023/01/27 12:38:30;;;;;;;;;;;;;;;19.23;61.40;100119.63;7401465;19;1833;-53
2023/01/27 12:41:00;;;;;;;;;;;;;;;19.33;61.55;100109.66;7404724;19;1999;-53
2023/01/27 12:43:29;;;;;;;;;;;;;;;19.30;61.50;100112.69;7400124;19;1727;-53
2023/01/27 12:46:08;;;;;;;;;;;;;;;19.24;61.42;100118.66;7405279;19;1705;-53
2023/01/27 12:48:46;;;;;;;;;;;;;;;19.26;61.49;100127.38;7405273;19;1038;-53
2023/01/27 12:51:16;;;;;;;;;;;;;;;19.28;61.89;100128.06;7402241;19;1859;-54
2023/01/27 12:53:45;;;;;;;;;;;;;;;19.26;62.62;100127.38;7403620;19;1829;-53
2023/01/27 12:56:15;;;;;;;;;;;;;;;19.26;63.49;100130.06;7402278;19;1713;-53
2023/01/27 12:58:44;;;;;;;;;;;;;;;19.11;63.33;100112.81;7399191;19;2004;-54
2023/01/27 13:01:27;;;;;;;;;;;;;;;18.96;63.15;100115.16;7402569;19;1809;-53
2023/01/27 13:03:59;;;;;;;;;;;;;;;19.05;63.99;100127.66;7404746;19;2005;-54
2023/01/27 13:06:34;;;;;;;;;;;;;;;19.02;64.52;100115.41;7403432;19;1923;-53
2023/01/27 13:09:04;;;;;;;;;;;;;;;19.13;65.18;100118.88;7401281;19;2072;-54
2023/01/27 13:11:34;;;;;;;;;;;;;;;19.28;65.17;100120.03;7400776;19;1873;-53
2023/01/27 13:14:02;;;;;;;;;;;;;;;19.36;64.62;100133.50;7403778;19;1733;-53
2023/01/27 13:16:31;;;;;;;;;;;;;;;19.32;65.37;100134.81;7403033;19;1770;-53
2023/01/27 13:19:02;;;;;;;;;;;;;;;19.35;65.49;100123.75;7400726;19;1934;-53
2023/01/27 13:21:34;;;;;;;;;;;;;;;19.40;65.06;100129.53;7403417;19;1062;-54
2023/01/27 13:24:04;;;;;;;;;;;;;;;19.36;65.61;100122.78;7401478;19;1948;-53
2023/01/27 13:26:36;;;;;;;;;;;;;;;19.35;65.47;100117.56;7402865;19;973;-54
2023/01/27 13:29:08;;;;;;;;;;;;;;;19.45;65.61;100131.72;7404269;19;939;-53
2023/01/27 13:31:41;;;;;;;;;;;;;;;19.37;65.36;100132.50;7402153;19;2022;-53
2023/01/27 13:34:17;;;;;;;;;;;;;;;19.37;65.84;100123.63;7402239;19;2011;-53
2023/01/27 13:36:47;;;;;;;;;;;;;;;19.36;65.66;100120.09;7402583;19;2118;-53
2023/01/27 13:39:19;;;;;;;;;;;;;;;19.39;65.88;100124.31;7400917;19;1692;-53